sensor_id;sensor_type;location;lat;lon;timestamp;P1;durP1;ratioP1;P2;durP2;ratioP2
12962;SDS011;6546;49.882;8.666;2023-07-16T00:02:06;4.83;;;3.60;;
12962;SDS011;6546;49.882;8.666;2023-07-16T00:04:32;7.90;;;4.00;;
12962;SDS011;6546;49.882;8.666;2023-07-16T00:06:59;4.33;;;3.73;;
12962;SDS011;6546;49.882;8.666;2023-07-16T00:09:26;6.33;;;3.67;;
12962;SDS011;6546;49.882;8.666;2023-07-16T00:11:53;3.83;;;3.50;;
12962;SDS011;6546;49.882;8.666;2023-07-16T00:14:19;4.17;;;3.77;;
12962;SDS011;6546;49.882;8.666;2023-07-16T00:16:46;8.03;;;4.20;;
12962;SDS011;6546;49.882;8.666;2023-07-16T00:19:14;4.57;;;3.67;;
12962;SDS011;6546;49.882;8.666;2023-07-16T00:21:41;9.87;;;3.87;;
12962;SDS011;6546;49.882;8.666;2023-07-16T00:24:07;5.00;;;3.83;;
12962;SDS011;6546;49.882;8.666;2023-07-16T00:26:34;5.87;;;3.60;;
12962;SDS011;6546;49.882;8.666;2023-07-16T00:29:00;3.80;;;3.40;;
12962;SDS011;6546;49.882;8.666;2023-07-16T00:31:27;3.83;;;3.43;;
12962;SDS011;6546;49.882;8.666;2023-07-16T00:33:53;3.30;;;3.00;;
12962;SDS011;6546;49.882;8.666;2023-07-16T00:36:21;7.10;;;3.67;;
12962;SDS011;6546;49.882;8.666;2023-07-16T00:38:48;4.53;;;3.40;;
12962;SDS011;6546;49.882;8.666;2023-07-16T00:41:15;3.57;;;3.10;;
12962;SDS011;6546;49.882;8.666;2023-07-16T00:43:42;6.00;;;3.40;;
12962;SDS011;6546;49.882;8.666;2023-07-16T00:46:08;4.47;;;3.60;;
12962;SDS011;6546;49.882;8.666;2023-07-16T00:48:36;4.93;;;3.40;;
12962;SDS011;6546;49.882;8.666;2023-07-16T00:51:03;5.83;;;3.93;;
12962;SDS011;6546;49.882;8.666;2023-07-16T00:53:32;5.90;;;3.97;;
12962;SDS011;6546;49.882;8.666;2023-07-16T00:55:59;7.17;;;3.80;;
12962;SDS011;6546;49.882;8.666;2023-07-16T00:58:26;3.70;;;3.00;;
12962;SDS011;6546;49.882;8.666;2023-07-16T01:00:52;6.47;;;3.00;;
12962;SDS011;6546;49.882;8.666;2023-07-16T01:03:19;4.97;;;3.23;;
12962;SDS011;6546;49.882;8.666;2023-07-16T01:05:47;5.03;;;3.30;;
12962;SDS011;6546;49.882;8.666;2023-07-16T01:08:19;4.17;;;2.70;;
12962;SDS011;6546;49.882;8.666;2023-07-16T01:10:54;3.37;;;3.07;;
12962;SDS011;6546;49.882;8.666;2023-07-16T01:13:21;4.20;;;2.70;;
12962;SDS011;6546;49.882;8.666;2023-07-16T01:15:49;4.00;;;2.80;;
12962;SDS011;6546;49.882;8.666;2023-07-16T01:18:15;3.23;;;2.53;;
12962;SDS011;6546;49.882;8.666;2023-07-16T01:20:42;3.60;;;2.17;;
12962;SDS011;6546;49.882;8.666;2023-07-16T01:26:11;3.80;;;2.40;;
12962;SDS011;6546;49.882;8.666;2023-07-16T01:31:55;5.27;;;2.27;;
12962;SDS011;6546;49.882;8.666;2023-07-16T01:34:24;3.23;;;2.27;;
12962;SDS011;6546;49.882;8.666;2023-07-16T01:36:55;2.33;;;1.80;;
12962;SDS011;6546;49.882;8.666;2023-07-16T01:39:21;2.87;;;2.00;;
12962;SDS011;6546;49.882;8.666;2023-07-16T01:41:48;3.03;;;2.17;;
12962;SDS011;6546;49.882;8.666;2023-07-16T01:44:15;4.47;;;2.37;;
12962;SDS011;6546;49.882;8.666;2023-07-16T01:46:42;3.87;;;2.07;;
12962;SDS011;6546;49.882;8.666;2023-07-16T01:49:09;3.33;;;2.07;;
12962;SDS011;6546;49.882;8.666;2023-07-16T01:51:36;4.47;;;2.47;;
12962;SDS011;6546;49.882;8.666;2023-07-16T01:54:02;5.50;;;2.27;;
12962;SDS011;6546;49.882;8.666;2023-07-16T01:56:29;2.33;;;1.97;;
12962;SDS011;6546;49.882;8.666;2023-07-16T01:58:55;4.70;;;2.17;;
12962;SDS011;6546;49.882;8.666;2023-07-16T02:01:22;2.13;;;1.87;;
12962;SDS011;6546;49.882;8.666;2023-07-16T02:03:50;3.13;;;2.10;;
12962;SDS011;6546;49.882;8.666;2023-07-16T02:06:16;3.47;;;2.20;;
12962;SDS011;6546;49.882;8.666;2023-07-16T02:08:43;5.57;;;2.67;;
12962;SDS011;6546;49.882;8.666;2023-07-16T02:11:09;5.43;;;2.70;;
12962;SDS011;6546;49.882;8.666;2023-07-16T02:13:36;3.00;;;2.23;;
12962;SDS011;6546;49.882;8.666;2023-07-16T02:16:02;2.20;;;2.00;;
12962;SDS011;6546;49.882;8.666;2023-07-16T02:18:29;3.63;;;2.10;;
12962;SDS011;6546;49.882;8.666;2023-07-16T02:20:57;3.90;;;2.30;;
12962;SDS011;6546;49.882;8.666;2023-07-16T02:23:24;4.40;;;2.60;;
12962;SDS011;6546;49.882;8.666;2023-07-16T02:25:50;2.63;;;2.20;;
12962;SDS011;6546;49.882;8.666;2023-07-16T02:28:17;3.13;;;2.37;;
12962;SDS011;6546;49.882;8.666;2023-07-16T02:30:43;2.60;;;2.20;;
12962;SDS011;6546;49.882;8.666;2023-07-16T02:33:10;4.33;;;2.40;;
12962;SDS011;6546;49.882;8.666;2023-07-16T02:35:37;3.23;;;2.13;;
12962;SDS011;6546;49.882;8.666;2023-07-16T02:38:04;3.63;;;2.50;;
12962;SDS011;6546;49.882;8.666;2023-07-16T02:40:31;2.40;;;2.20;;
12962;SDS011;6546;49.882;8.666;2023-07-16T02:42:57;3.63;;;2.33;;
12962;SDS011;6546;49.882;8.666;2023-07-16T02:45:24;3.57;;;2.30;;
12962;SDS011;6546;49.882;8.666;2023-07-16T02:47:51;5.47;;;2.37;;
12962;SDS011;6546;49.882;8.666;2023-07-16T02:50:17;4.53;;;2.00;;
12962;SDS011;6546;49.882;8.666;2023-07-16T02:52:44;5.57;;;2.73;;
12962;SDS011;6546;49.882;8.666;2023-07-16T02:55:12;2.20;;;2.00;;
12962;SDS011;6546;49.882;8.666;2023-07-16T02:57:38;4.37;;;2.67;;
12962;SDS011;6546;49.882;8.666;2023-07-16T03:00:05;3.90;;;2.20;;
12962;SDS011;6546;49.882;8.666;2023-07-16T03:02:32;4.03;;;2.50;;
12962;SDS011;6546;49.882;8.666;2023-07-16T03:04:59;3.43;;;2.20;;
12962;SDS011;6546;49.882;8.666;2023-07-16T03:07:25;3.90;;;2.27;;
12962;SDS011;6546;49.882;8.666;2023-07-16T03:09:52;3.43;;;2.40;;
12962;SDS011;6546;49.882;8.666;2023-07-16T03:12:22;4.33;;;2.33;;
12962;SDS011;6546;49.882;8.666;2023-07-16T03:14:49;3.83;;;2.40;;
12962;SDS011;6546;49.882;8.666;2023-07-16T03:17:19;4.20;;;2.50;;
12962;SDS011;6546;49.882;8.666;2023-07-16T03:19:45;5.30;;;2.37;;
12962;SDS011;6546;49.882;8.666;2023-07-16T03:22:12;3.87;;;2.20;;
12962;SDS011;6546;49.882;8.666;2023-07-16T03:24:38;3.20;;;2.17;;
12962;SDS011;6546;49.882;8.666;2023-07-16T03:27:05;4.57;;;2.17;;
12962;SDS011;6546;49.882;8.666;2023-07-16T03:29:33;5.03;;;2.43;;
12962;SDS011;6546;49.882;8.666;2023-07-16T03:32:00;5.77;;;2.63;;
12962;SDS011;6546;49.882;8.666;2023-07-16T03:34:29;3.50;;;2.40;;
12962;SDS011;6546;49.882;8.666;2023-07-16T03:36:56;4.20;;;2.40;;
12962;SDS011;6546;49.882;8.666;2023-07-16T03:39:22;4.83;;;2.20;;
12962;SDS011;6546;49.882;8.666;2023-07-16T03:41:49;4.00;;;2.50;;
12962;SDS011;6546;49.882;8.666;2023-07-16T03:44:15;4.60;;;2.40;;
12962;SDS011;6546;49.882;8.666;2023-07-16T03:46:43;6.90;;;2.47;;
12962;SDS011;6546;49.882;8.666;2023-07-16T03:49:10;5.50;;;2.53;;
12962;SDS011;6546;49.882;8.666;2023-07-16T03:51:37;7.83;;;2.60;;
12962;SDS011;6546;49.882;8.666;2023-07-16T03:54:03;2.97;;;2.30;;
12962;SDS011;6546;49.882;8.666;2023-07-16T03:56:30;3.57;;;2.63;;
12962;SDS011;6546;49.882;8.666;2023-07-16T03:58:56;4.87;;;2.53;;
12962;SDS011;6546;49.882;8.666;2023-07-16T04:01:23;8.70;;;2.40;;
12962;SDS011;6546;49.882;8.666;2023-07-16T04:03:51;7.60;;;2.33;;
12962;SDS011;6546;49.882;8.666;2023-07-16T04:06:18;6.70;;;2.30;;
12962;SDS011;6546;49.882;8.666;2023-07-16T04:08:44;3.17;;;2.20;;
12962;SDS011;6546;49.882;8.666;2023-07-16T04:11:11;3.87;;;2.20;;
12962;SDS011;6546;49.882;8.666;2023-07-16T04:13:37;4.40;;;2.67;;
12962;SDS011;6546;49.882;8.666;2023-07-16T04:16:04;5.73;;;2.47;;
12962;SDS011;6546;49.882;8.666;2023-07-16T04:18:30;4.70;;;2.30;;
12962;SDS011;6546;49.882;8.666;2023-07-16T04:20:58;4.70;;;2.43;;
12962;SDS011;6546;49.882;8.666;2023-07-16T04:23:24;5.13;;;2.40;;
12962;SDS011;6546;49.882;8.666;2023-07-16T04:25:51;6.37;;;2.30;;
12962;SDS011;6546;49.882;8.666;2023-07-16T04:28:19;4.93;;;2.67;;
12962;SDS011;6546;49.882;8.666;2023-07-16T04:30:45;4.97;;;2.73;;
12962;SDS011;6546;49.882;8.666;2023-07-16T04:33:12;5.10;;;2.50;;
12962;SDS011;6546;49.882;8.666;2023-07-16T04:35:39;3.37;;;2.27;;
12962;SDS011;6546;49.882;8.666;2023-07-16T04:38:06;8.00;;;2.97;;
12962;SDS011;6546;49.882;8.666;2023-07-16T04:40:33;4.37;;;2.20;;
12962;SDS011;6546;49.882;8.666;2023-07-16T04:43:00;4.70;;;2.00;;
12962;SDS011;6546;49.882;8.666;2023-07-16T04:45:26;5.10;;;2.30;;
12962;SDS011;6546;49.882;8.666;2023-07-16T04:47:53;5.93;;;2.43;;
12962;SDS011;6546;49.882;8.666;2023-07-16T04:50:19;4.13;;;2.53;;
12962;SDS011;6546;49.882;8.666;2023-07-16T04:52:46;4.27;;;2.43;;
12962;SDS011;6546;49.882;8.666;2023-07-16T04:55:14;5.67;;;2.20;;
12962;SDS011;6546;49.882;8.666;2023-07-16T04:57:40;4.80;;;2.20;;
12962;SDS011;6546;49.882;8.666;2023-07-16T05:00:07;6.70;;;2.70;;
12962;SDS011;6546;49.882;8.666;2023-07-16T05:02:35;5.10;;;2.30;;
12962;SDS011;6546;49.882;8.666;2023-07-16T05:05:01;5.80;;;2.43;;
12962;SDS011;6546;49.882;8.666;2023-07-16T05:07:28;3.67;;;2.33;;
12962;SDS011;6546;49.882;8.666;2023-07-16T05:09:55;5.13;;;2.50;;
12962;SDS011;6546;49.882;8.666;2023-07-16T05:12:23;4.77;;;2.53;;
12962;SDS011;6546;49.882;8.666;2023-07-16T05:14:49;5.00;;;2.47;;
12962;SDS011;6546;49.882;8.666;2023-07-16T05:17:17;6.13;;;2.40;;
12962;SDS011;6546;49.882;8.666;2023-07-16T05:19:43;5.23;;;2.47;;
12962;SDS011;6546;49.882;8.666;2023-07-16T05:22:10;7.80;;;2.83;;
12962;SDS011;6546;49.882;8.666;2023-07-16T05:24:36;4.80;;;2.10;;
12962;SDS011;6546;49.882;8.666;2023-07-16T05:27:03;7.50;;;2.33;;
12962;SDS011;6546;49.882;8.666;2023-07-16T05:29:32;5.30;;;2.10;;
12962;SDS011;6546;49.882;8.666;2023-07-16T05:31:58;9.20;;;2.40;;
12962;SDS011;6546;49.882;8.666;2023-07-16T05:34:25;4.93;;;2.30;;
12962;SDS011;6546;49.882;8.666;2023-07-16T05:36:53;3.27;;;2.10;;
12962;SDS011;6546;49.882;8.666;2023-07-16T05:39:20;7.97;;;2.53;;
12962;SDS011;6546;49.882;8.666;2023-07-16T05:41:47;5.93;;;2.23;;
12962;SDS011;6546;49.882;8.666;2023-07-16T05:44:14;5.53;;;2.47;;
12962;SDS011;6546;49.882;8.666;2023-07-16T05:46:42;4.43;;;2.30;;
12962;SDS011;6546;49.882;8.666;2023-07-16T05:49:08;3.40;;;1.73;;
12962;SDS011;6546;49.882;8.666;2023-07-16T05:51:35;6.20;;;2.53;;
12962;SDS011;6546;49.882;8.666;2023-07-16T05:54:01;5.47;;;2.53;;
12962;SDS011;6546;49.882;8.666;2023-07-16T05:56:28;3.30;;;1.90;;
12962;SDS011;6546;49.882;8.666;2023-07-16T05:58:55;3.40;;;1.70;;
12962;SDS011;6546;49.882;8.666;2023-07-16T06:01:22;4.03;;;2.17;;
12962;SDS011;6546;49.882;8.666;2023-07-16T06:03:50;5.27;;;2.13;;
12962;SDS011;6546;49.882;8.666;2023-07-16T06:06:16;5.23;;;2.33;;
12962;SDS011;6546;49.882;8.666;2023-07-16T06:08:43;3.90;;;1.97;;
12962;SDS011;6546;49.882;8.666;2023-07-16T06:11:09;5.93;;;2.33;;
12962;SDS011;6546;49.882;8.666;2023-07-16T06:13:36;5.77;;;2.33;;
12962;SDS011;6546;49.882;8.666;2023-07-16T06:16:03;5.87;;;2.20;;
12962;SDS011;6546;49.882;8.666;2023-07-16T06:18:30;3.83;;;2.60;;
12962;SDS011;6546;49.882;8.666;2023-07-16T06:20:58;3.53;;;2.07;;
12962;SDS011;6546;49.882;8.666;2023-07-16T06:23:24;4.82;;;1.90;;
12962;SDS011;6546;49.882;8.666;2023-07-16T06:25:53;3.20;;;1.95;;
12962;SDS011;6546;49.882;8.666;2023-07-16T06:28:20;4.30;;;2.08;;
12962;SDS011;6546;49.882;8.666;2023-07-16T06:30:47;5.57;;;2.08;;
12962;SDS011;6546;49.882;8.666;2023-07-16T06:33:13;4.32;;;1.85;;
12962;SDS011;6546;49.882;8.666;2023-07-16T06:35:43;5.78;;;2.13;;
12962;SDS011;6546;49.882;8.666;2023-07-16T06:38:11;4.43;;;1.90;;
12962;SDS011;6546;49.882;8.666;2023-07-16T06:40:38;5.28;;;2.83;;
12962;SDS011;6546;49.882;8.666;2023-07-16T06:43:04;4.93;;;2.10;;
12962;SDS011;6546;49.882;8.666;2023-07-16T06:45:31;6.35;;;2.13;;
12962;SDS011;6546;49.882;8.666;2023-07-16T06:47:58;6.28;;;2.30;;
12962;SDS011;6546;49.882;8.666;2023-07-16T06:50:24;5.93;;;2.05;;
12962;SDS011;6546;49.882;8.666;2023-07-16T06:52:51;3.30;;;2.28;;
12962;SDS011;6546;49.882;8.666;2023-07-16T06:55:19;3.95;;;1.92;;
12962;SDS011;6546;49.882;8.666;2023-07-16T06:57:45;5.07;;;1.90;;
12962;SDS011;6546;49.882;8.666;2023-07-16T07:00:12;7.60;;;2.28;;
12962;SDS011;6546;49.882;8.666;2023-07-16T07:02:38;3.72;;;2.05;;
12962;SDS011;6546;49.882;8.666;2023-07-16T07:05:06;5.75;;;2.38;;
12962;SDS011;6546;49.882;8.666;2023-07-16T07:07:33;3.33;;;2.20;;
12962;SDS011;6546;49.882;8.666;2023-07-16T07:09:59;7.80;;;2.60;;
12962;SDS011;6546;49.882;8.666;2023-07-16T07:12:27;4.63;;;2.13;;
12962;SDS011;6546;49.882;8.666;2023-07-16T07:14:54;5.53;;;2.55;;
12962;SDS011;6546;49.882;8.666;2023-07-16T07:17:21;6.57;;;2.40;;
12962;SDS011;6546;49.882;8.666;2023-07-16T07:19:47;4.05;;;2.42;;
12962;SDS011;6546;49.882;8.666;2023-07-16T07:22:14;5.95;;;2.60;;
12962;SDS011;6546;49.882;8.666;2023-07-16T07:24:41;5.90;;;2.53;;
12962;SDS011;6546;49.882;8.666;2023-07-16T07:27:08;5.88;;;2.70;;
12962;SDS011;6546;49.882;8.666;2023-07-16T07:29:35;4.80;;;2.70;;
12962;SDS011;6546;49.882;8.666;2023-07-16T07:32:02;4.40;;;2.75;;
12962;SDS011;6546;49.882;8.666;2023-07-16T07:34:29;4.50;;;2.35;;
12962;SDS011;6546;49.882;8.666;2023-07-16T07:36:56;6.03;;;3.13;;
12962;SDS011;6546;49.882;8.666;2023-07-16T07:39:22;5.43;;;2.58;;
12962;SDS011;6546;49.882;8.666;2023-07-16T07:41:49;3.90;;;2.47;;
12962;SDS011;6546;49.882;8.666;2023-07-16T07:44:15;4.63;;;2.70;;
12962;SDS011;6546;49.882;8.666;2023-07-16T07:46:43;6.68;;;2.80;;
12962;SDS011;6546;49.882;8.666;2023-07-16T07:49:10;6.32;;;2.78;;
12962;SDS011;6546;49.882;8.666;2023-07-16T07:51:36;6.50;;;3.30;;
12962;SDS011;6546;49.882;8.666;2023-07-16T07:54:03;6.07;;;2.75;;
12962;SDS011;6546;49.882;8.666;2023-07-16T07:56:30;6.45;;;3.47;;
12962;SDS011;6546;49.882;8.666;2023-07-16T07:58:56;7.10;;;2.83;;
12962;SDS011;6546;49.882;8.666;2023-07-16T08:01:23;8.87;;;3.30;;
12962;SDS011;6546;49.882;8.666;2023-07-16T08:03:50;6.80;;;3.37;;
12962;SDS011;6546;49.882;8.666;2023-07-16T08:06:17;4.47;;;3.07;;
12962;SDS011;6546;49.882;8.666;2023-07-16T08:08:43;7.07;;;3.37;;
12962;SDS011;6546;49.882;8.666;2023-07-16T08:11:10;8.60;;;3.00;;
12962;SDS011;6546;49.882;8.666;2023-07-16T08:13:38;9.57;;;3.13;;
12962;SDS011;6546;49.882;8.666;2023-07-16T08:16:05;9.77;;;3.00;;
12962;SDS011;6546;49.882;8.666;2023-07-16T08:18:31;7.27;;;3.00;;
12962;SDS011;6546;49.882;8.666;2023-07-16T08:20:59;7.13;;;3.00;;
12962;SDS011;6546;49.882;8.666;2023-07-16T08:23:26;7.47;;;2.73;;
12962;SDS011;6546;49.882;8.666;2023-07-16T08:25:52;7.33;;;3.17;;
12962;SDS011;6546;49.882;8.666;2023-07-16T08:28:19;6.43;;;3.20;;
12962;SDS011;6546;49.882;8.666;2023-07-16T08:30:46;8.50;;;3.47;;
12962;SDS011;6546;49.882;8.666;2023-07-16T08:33:13;5.28;;;2.92;;
12962;SDS011;6546;49.882;8.666;2023-07-16T08:35:40;4.07;;;2.60;;
12962;SDS011;6546;49.882;8.666;2023-07-16T08:38:08;7.90;;;2.83;;
12962;SDS011;6546;49.882;8.666;2023-07-16T08:40:35;5.20;;;3.00;;
12962;SDS011;6546;49.882;8.666;2023-07-16T08:43:02;7.47;;;2.57;;
12962;SDS011;6546;49.882;8.666;2023-07-16T08:45:31;8.37;;;2.93;;
12962;SDS011;6546;49.882;8.666;2023-07-16T08:48:01;6.80;;;2.63;;
12962;SDS011;6546;49.882;8.666;2023-07-16T08:50:28;6.47;;;3.03;;
12962;SDS011;6546;49.882;8.666;2023-07-16T08:52:55;6.05;;;2.83;;
12962;SDS011;6546;49.882;8.666;2023-07-16T08:55:25;6.38;;;2.72;;
12962;SDS011;6546;49.882;8.666;2023-07-16T08:57:52;5.80;;;3.10;;
12962;SDS011;6546;49.882;8.666;2023-07-16T09:00:19;5.53;;;2.65;;
12962;SDS011;6546;49.882;8.666;2023-07-16T09:02:47;7.75;;;3.40;;
12962;SDS011;6546;49.882;8.666;2023-07-16T09:05:14;5.45;;;2.83;;
12962;SDS011;6546;49.882;8.666;2023-07-16T09:07:45;8.90;;;2.90;;
12962;SDS011;6546;49.882;8.666;2023-07-16T09:10:12;7.10;;;2.70;;
12962;SDS011;6546;49.882;8.666;2023-07-16T09:12:42;5.83;;;2.80;;
12962;SDS011;6546;49.882;8.666;2023-07-16T09:15:09;5.40;;;2.93;;
12962;SDS011;6546;49.882;8.666;2023-07-16T09:17:36;6.00;;;2.57;;
12962;SDS011;6546;49.882;8.666;2023-07-16T09:20:03;5.68;;;2.70;;
12962;SDS011;6546;49.882;8.666;2023-07-16T09:22:32;6.10;;;2.90;;
12962;SDS011;6546;49.882;8.666;2023-07-16T09:24:59;4.95;;;2.80;;
12962;SDS011;6546;49.882;8.666;2023-07-16T09:27:27;7.00;;;2.50;;
12962;SDS011;6546;49.882;8.666;2023-07-16T09:29:55;4.50;;;2.72;;
12962;SDS011;6546;49.882;8.666;2023-07-16T09:32:32;7.05;;;2.95;;
12962;SDS011;6546;49.882;8.666;2023-07-16T09:34:59;4.80;;;2.33;;
12962;SDS011;6546;49.882;8.666;2023-07-16T09:37:25;5.87;;;2.77;;
12962;SDS011;6546;49.882;8.666;2023-07-16T09:39:53;5.60;;;2.90;;
12962;SDS011;6546;49.882;8.666;2023-07-16T09:42:20;5.53;;;3.38;;
12962;SDS011;6546;49.882;8.666;2023-07-16T09:44:48;3.53;;;2.60;;
12962;SDS011;6546;49.882;8.666;2023-07-16T09:47:20;5.87;;;2.73;;
12962;SDS011;6546;49.882;8.666;2023-07-16T09:49:47;6.93;;;2.95;;
12962;SDS011;6546;49.882;8.666;2023-07-16T09:52:13;3.97;;;2.57;;
12962;SDS011;6546;49.882;8.666;2023-07-16T09:54:40;5.43;;;2.83;;
12962;SDS011;6546;49.882;8.666;2023-07-16T09:57:08;6.37;;;2.73;;
12962;SDS011;6546;49.882;8.666;2023-07-16T09:59:38;5.77;;;2.67;;
12962;SDS011;6546;49.882;8.666;2023-07-16T10:02:05;5.63;;;2.40;;
12962;SDS011;6546;49.882;8.666;2023-07-16T10:04:38;4.87;;;2.63;;
12962;SDS011;6546;49.882;8.666;2023-07-16T10:07:06;4.77;;;2.73;;
12962;SDS011;6546;49.882;8.666;2023-07-16T10:09:35;7.45;;;3.20;;
12962;SDS011;6546;49.882;8.666;2023-07-16T10:12:08;7.70;;;2.83;;
12962;SDS011;6546;49.882;8.666;2023-07-16T10:14:41;6.65;;;2.70;;
12962;SDS011;6546;49.882;8.666;2023-07-16T10:17:13;6.35;;;2.50;;
12962;SDS011;6546;49.882;8.666;2023-07-16T10:19:51;4.00;;;2.35;;
12962;SDS011;6546;49.882;8.666;2023-07-16T10:22:31;3.47;;;2.20;;
12962;SDS011;6546;49.882;8.666;2023-07-16T10:24:59;6.93;;;2.85;;
12962;SDS011;6546;49.882;8.666;2023-07-16T10:27:27;4.35;;;2.40;;
12962;SDS011;6546;49.882;8.666;2023-07-16T10:29:54;4.45;;;2.40;;
12962;SDS011;6546;49.882;8.666;2023-07-16T10:32:21;6.28;;;2.38;;
12962;SDS011;6546;49.882;8.666;2023-07-16T10:34:53;4.55;;;2.30;;
12962;SDS011;6546;49.882;8.666;2023-07-16T10:37:20;4.35;;;3.00;;
12962;SDS011;6546;49.882;8.666;2023-07-16T10:39:47;3.55;;;2.22;;
12962;SDS011;6546;49.882;8.666;2023-07-16T10:42:15;8.32;;;2.58;;
12962;SDS011;6546;49.882;8.666;2023-07-16T10:44:43;4.80;;;2.53;;
12962;SDS011;6546;49.882;8.666;2023-07-16T10:47:10;2.77;;;2.47;;
12962;SDS011;6546;49.882;8.666;2023-07-16T10:49:45;4.38;;;2.40;;
12962;SDS011;6546;49.882;8.666;2023-07-16T10:52:12;5.60;;;2.58;;
12962;SDS011;6546;49.882;8.666;2023-07-16T10:54:39;4.13;;;2.58;;
12962;SDS011;6546;49.882;8.666;2023-07-16T10:57:06;3.53;;;2.15;;
12962;SDS011;6546;49.882;8.666;2023-07-16T10:59:32;4.68;;;2.65;;
12962;SDS011;6546;49.882;8.666;2023-07-16T11:01:59;4.43;;;2.40;;
12962;SDS011;6546;49.882;8.666;2023-07-16T11:04:25;5.50;;;2.35;;
12962;SDS011;6546;49.882;8.666;2023-07-16T11:06:52;2.90;;;2.30;;
12962;SDS011;6546;49.882;8.666;2023-07-16T11:09:20;5.60;;;2.30;;
12962;SDS011;6546;49.882;8.666;2023-07-16T11:11:46;6.10;;;2.77;;
12962;SDS011;6546;49.882;8.666;2023-07-16T11:14:13;3.97;;;2.50;;
12962;SDS011;6546;49.882;8.666;2023-07-16T11:16:39;4.95;;;2.45;;
12962;SDS011;6546;49.882;8.666;2023-07-16T11:19:06;5.22;;;2.88;;
12962;SDS011;6546;49.882;8.666;2023-07-16T11:21:33;4.90;;;2.42;;
12962;SDS011;6546;49.882;8.666;2023-07-16T11:24:09;5.65;;;2.55;;
12962;SDS011;6546;49.882;8.666;2023-07-16T11:26:38;6.45;;;2.85;;
12962;SDS011;6546;49.882;8.666;2023-07-16T11:29:12;4.10;;;2.70;;
12962;SDS011;6546;49.882;8.666;2023-07-16T11:31:39;3.55;;;2.60;;
12962;SDS011;6546;49.882;8.666;2023-07-16T11:34:06;4.72;;;2.30;;
12962;SDS011;6546;49.882;8.666;2023-07-16T11:36:33;3.92;;;2.38;;
12962;SDS011;6546;49.882;8.666;2023-07-16T11:39:02;4.18;;;2.88;;
12962;SDS011;6546;49.882;8.666;2023-07-16T11:41:29;5.03;;;2.37;;
12962;SDS011;6546;49.882;8.666;2023-07-16T11:43:59;5.23;;;2.37;;
12962;SDS011;6546;49.882;8.666;2023-07-16T11:46:30;4.45;;;2.30;;
12962;SDS011;6546;49.882;8.666;2023-07-16T11:48:57;5.28;;;2.78;;
12962;SDS011;6546;49.882;8.666;2023-07-16T11:51:23;8.52;;;3.13;;
12962;SDS011;6546;49.882;8.666;2023-07-16T11:53:50;4.63;;;2.58;;
12962;SDS011;6546;49.882;8.666;2023-07-16T11:56:16;9.52;;;2.83;;
12962;SDS011;6546;49.882;8.666;2023-07-16T11:58:43;5.05;;;2.50;;
12962;SDS011;6546;49.882;8.666;2023-07-16T12:01:11;4.38;;;2.40;;
12962;SDS011;6546;49.882;8.666;2023-07-16T12:03:38;5.28;;;2.83;;
12962;SDS011;6546;49.882;8.666;2023-07-16T12:06:05;4.97;;;2.53;;
12962;SDS011;6546;49.882;8.666;2023-07-16T12:08:31;5.05;;;2.80;;
12962;SDS011;6546;49.882;8.666;2023-07-16T12:10:58;3.03;;;2.33;;
12962;SDS011;6546;49.882;8.666;2023-07-16T12:13:24;5.68;;;2.80;;
12962;SDS011;6546;49.882;8.666;2023-07-16T12:15:51;5.63;;;3.17;;
12962;SDS011;6546;49.882;8.666;2023-07-16T12:18:19;3.83;;;2.70;;
12962;SDS011;6546;49.882;8.666;2023-07-16T12:20:45;5.00;;;2.83;;
12962;SDS011;6546;49.882;8.666;2023-07-16T12:23:12;5.15;;;2.63;;
12962;SDS011;6546;49.882;8.666;2023-07-16T12:25:38;3.75;;;2.33;;
12962;SDS011;6546;49.882;8.666;2023-07-16T12:28:05;3.28;;;2.78;;
12962;SDS011;6546;49.882;8.666;2023-07-16T12:30:31;4.38;;;2.95;;
12962;SDS011;6546;49.882;8.666;2023-07-16T12:32:58;3.80;;;2.42;;
12962;SDS011;6546;49.882;8.666;2023-07-16T12:35:26;4.60;;;2.40;;
12962;SDS011;6546;49.882;8.666;2023-07-16T12:37:52;5.00;;;3.03;;
12962;SDS011;6546;49.882;8.666;2023-07-16T12:40:19;3.58;;;2.20;;
12962;SDS011;6546;49.882;8.666;2023-07-16T12:42:45;4.22;;;2.80;;
12962;SDS011;6546;49.882;8.666;2023-07-16T12:45:12;4.18;;;3.05;;
12962;SDS011;6546;49.882;8.666;2023-07-16T12:47:38;4.00;;;2.60;;
12962;SDS011;6546;49.882;8.666;2023-07-16T12:50:05;4.60;;;2.37;;
12962;SDS011;6546;49.882;8.666;2023-07-16T12:52:34;5.90;;;3.00;;
12962;SDS011;6546;49.882;8.666;2023-07-16T12:55:00;3.55;;;2.92;;
12962;SDS011;6546;49.882;8.666;2023-07-16T12:57:27;4.93;;;2.92;;
12962;SDS011;6546;49.882;8.666;2023-07-16T12:59:53;5.70;;;2.70;;
12962;SDS011;6546;49.882;8.666;2023-07-16T13:02:20;4.53;;;2.80;;
12962;SDS011;6546;49.882;8.666;2023-07-16T13:04:46;4.63;;;2.65;;
12962;SDS011;6546;49.882;8.666;2023-07-16T13:07:13;5.18;;;3.00;;
12962;SDS011;6546;49.882;8.666;2023-07-16T13:09:41;4.65;;;3.13;;
12962;SDS011;6546;49.882;8.666;2023-07-16T13:12:07;5.60;;;2.90;;
12962;SDS011;6546;49.882;8.666;2023-07-16T13:14:34;4.68;;;2.95;;
12962;SDS011;6546;49.882;8.666;2023-07-16T13:17:00;3.25;;;2.78;;
12962;SDS011;6546;49.882;8.666;2023-07-16T13:19:29;5.40;;;3.15;;
12962;SDS011;6546;49.882;8.666;2023-07-16T13:21:55;4.32;;;3.42;;
12962;SDS011;6546;49.882;8.666;2023-07-16T13:24:22;5.65;;;3.28;;
12962;SDS011;6546;49.882;8.666;2023-07-16T13:26:52;4.65;;;3.10;;
12962;SDS011;6546;49.882;8.666;2023-07-16T13:29:18;6.70;;;3.73;;
12962;SDS011;6546;49.882;8.666;2023-07-16T13:31:45;6.30;;;3.20;;
12962;SDS011;6546;49.882;8.666;2023-07-16T13:34:11;6.30;;;3.70;;
12962;SDS011;6546;49.882;8.666;2023-07-16T13:36:38;4.93;;;3.35;;
12962;SDS011;6546;49.882;8.666;2023-07-16T13:39:04;6.03;;;3.10;;
12962;SDS011;6546;49.882;8.666;2023-07-16T13:41:31;5.50;;;3.08;;
12962;SDS011;6546;49.882;8.666;2023-07-16T13:43:59;5.53;;;3.33;;
12962;SDS011;6546;49.882;8.666;2023-07-16T13:46:26;7.00;;;3.30;;
12962;SDS011;6546;49.882;8.666;2023-07-16T13:48:53;6.15;;;3.88;;
12962;SDS011;6546;49.882;8.666;2023-07-16T13:51:19;6.20;;;3.80;;
12962;SDS011;6546;49.882;8.666;2023-07-16T13:53:46;5.40;;;3.45;;
12962;SDS011;6546;49.882;8.666;2023-07-16T13:56:12;7.30;;;3.93;;
12962;SDS011;6546;49.882;8.666;2023-07-16T13:58:39;6.38;;;3.90;;
12962;SDS011;6546;49.882;8.666;2023-07-16T14:01:07;5.50;;;3.47;;
12962;SDS011;6546;49.882;8.666;2023-07-16T14:03:33;9.10;;;3.97;;
12962;SDS011;6546;49.882;8.666;2023-07-16T14:06:00;6.10;;;3.58;;
12962;SDS011;6546;49.882;8.666;2023-07-16T14:08:27;5.33;;;3.97;;
12962;SDS011;6546;49.882;8.666;2023-07-16T14:10:53;5.45;;;4.10;;
12962;SDS011;6546;49.882;8.666;2023-07-16T14:13:20;6.33;;;3.87;;
12962;SDS011;6546;49.882;8.666;2023-07-16T14:15:47;5.55;;;3.85;;
12962;SDS011;6546;49.882;8.666;2023-07-16T14:18:15;6.65;;;4.10;;
12962;SDS011;6546;49.882;8.666;2023-07-16T14:20:41;8.05;;;4.20;;
12962;SDS011;6546;49.882;8.666;2023-07-16T14:23:08;4.75;;;3.53;;
12962;SDS011;6546;49.882;8.666;2023-07-16T14:25:34;5.30;;;4.03;;
12962;SDS011;6546;49.882;8.666;2023-07-16T14:28:01;5.73;;;4.00;;
12962;SDS011;6546;49.882;8.666;2023-07-16T14:30:27;7.60;;;4.07;;
12962;SDS011;6546;49.882;8.666;2023-07-16T14:32:54;5.78;;;3.60;;
12962;SDS011;6546;49.882;8.666;2023-07-16T14:35:22;6.57;;;3.87;;
12962;SDS011;6546;49.882;8.666;2023-07-16T14:37:48;5.88;;;4.05;;
12962;SDS011;6546;49.882;8.666;2023-07-16T14:40:15;6.22;;;4.50;;
12962;SDS011;6546;49.882;8.666;2023-07-16T14:42:42;7.57;;;4.32;;
12962;SDS011;6546;49.882;8.666;2023-07-16T14:45:09;7.75;;;5.05;;
12962;SDS011;6546;49.882;8.666;2023-07-16T14:47:36;6.07;;;4.30;;
12962;SDS011;6546;49.882;8.666;2023-07-16T14:50:02;7.35;;;4.63;;
12962;SDS011;6546;49.882;8.666;2023-07-16T14:52:32;5.73;;;4.17;;
12962;SDS011;6546;49.882;8.666;2023-07-16T14:55:00;4.90;;;4.00;;
12962;SDS011;6546;49.882;8.666;2023-07-16T14:57:26;6.63;;;4.40;;
12962;SDS011;6546;49.882;8.666;2023-07-16T14:59:53;9.03;;;4.40;;
12962;SDS011;6546;49.882;8.666;2023-07-16T15:02:19;7.47;;;4.10;;
12962;SDS011;6546;49.882;8.666;2023-07-16T15:04:46;7.67;;;4.37;;
12962;SDS011;6546;49.882;8.666;2023-07-16T15:07:12;9.87;;;4.23;;